sensor_id;sensor_type;location;lat;lon;timestamp;pressure;altitude;pressure_sealevel;temperature;humidity
6395;BME280;3230;42.588;23.358;2023-01-26T00:01:11;91323.94;;;-2.86;100.00
6395;BME280;3230;42.588;23.358;2023-01-26T00:03:37;91317.22;;;-2.87;100.00
6395;BME280;3230;42.588;23.358;2023-01-26T00:06:06;91314.97;;;-2.97;100.00
6395;BME280;3230;42.588;23.358;2023-01-26T00:08:40;91314.72;;;-3.09;100.00
6395;BME280;3230;42.588;23.358;2023-01-26T00:11:08;91315.16;;;-2.99;100.00
6395;BME280;3230;42.588;23.358;2023-01-26T00:13:34;91315.38;;;-3.00;100.00
6395;BME280;3230;42.588;23.358;2023-01-26T00:16:01;91320.31;;;-2.99;100.00
6395;BME280;3230;42.588;23.358;2023-01-26T00:18:27;91319.00;;;-2.88;100.00
6395;BME280;3230;42.588;23.358;2023-01-26T00:21:00;91328.38;;;-3.02;100.00
6395;BME280;3230;42.588;23.358;2023-01-26T00:23:27;91326.41;;;-3.00;100.00
6395;BME280;3230;42.588;23.358;2023-01-26T00:25:53;91326.03;;;-2.97;100.00
6395;BME280;3230;42.588;23.358;2023-01-26T00:28:18;91314.59;;;-3.23;100.00
6395;BME280;3230;42.588;23.358;2023-01-26T00:30:44;91304.81;;;-3.12;100.00
6395;BME280;3230;42.588;23.358;2023-01-26T00:33:10;91292.66;;;-3.03;100.00
6395;BME280;3230;42.588;23.358;2023-01-26T00:35:35;91288.75;;;-2.99;100.00
6395;BME280;3230;42.588;23.358;2023-01-26T00:38:01;91300.03;;;-2.94;100.00
6395;BME280;3230;42.588;23.358;2023-01-26T00:40:26;91294.25;;;-3.02;100.00
6395;BME280;3230;42.588;23.358;2023-01-26T00:42:51;91298.94;;;-3.06;100.00
6395;BME280;3230;42.588;23.358;2023-01-26T00:45:21;91291.66;;;-3.02;100.00
6395;BME280;3230;42.588;23.358;2023-01-26T00:47:46;91293.81;;;-3.06;100.00
6395;BME280;3230;42.588;23.358;2023-01-26T00:50:12;91282.94;;;-3.08;100.00
6395;BME280;3230;42.588;23.358;2023-01-26T00:52:37;91276.69;;;-3.06;100.00
6395;BME280;3230;42.588;23.358;2023-01-26T00:55:03;91271.59;;;-2.99;100.00
6395;BME280;3230;42.588;23.358;2023-01-26T00:57:29;91275.97;;;-2.93;100.00
6395;BME280;3230;42.588;23.358;2023-01-26T00:59:54;91270.53;;;-3.05;100.00
6395;BME280;3230;42.588;23.358;2023-01-26T01:02:19;91270.31;;;-3.10;100.00
6395;BME280;3230;42.588;23.358;2023-01-26T01:04:45;91266.41;;;-3.06;100.00
6395;BME280;3230;42.588;23.358;2023-01-26T01:07:11;91275.88;;;-3.06;100.00
6395;BME280;3230;42.588;23.358;2023-01-26T01:09:36;91266.47;;;-3.21;100.00
6395;BME280;3230;42.588;23.358;2023-01-26T01:12:01;91264.03;;;-3.07;100.00
6395;BME280;3230;42.588;23.358;2023-01-26T01:14:27;91273.94;;;-2.97;100.00
6395;BME280;3230;42.588;23.358;2023-01-26T01:16:52;91262.28;;;-3.07;100.00
6395;BME280;3230;42.588;23.358;2023-01-26T01:19:18;91259.97;;;-3.23;100.00
6395;BME280;3230;42.588;23.358;2023-01-26T01:21:44;91265.81;;;-3.29;100.00
6395;BME280;3230;42.588;23.358;2023-01-26T01:24:10;91254.84;;;-3.23;100.00
6395;BME280;3230;42.588;23.358;2023-01-26T01:26:37;91260.81;;;-3.16;100.00
6395;BME280;3230;42.588;23.358;2023-01-26T01:29:03;91252.22;;;-3.30;100.00
6395;BME280;3230;42.588;23.358;2023-01-26T01:31:28;91244.13;;;-3.33;100.00
6395;BME280;3230;42.588;23.358;2023-01-26T01:33:55;91250.22;;;-3.34;100.00
6395;BME280;3230;42.588;23.358;2023-01-26T01:36:21;91246.72;;;-3.27;100.00
6395;BME280;3230;42.588;23.358;2023-01-26T01:38:47;91244.16;;;-3.27;100.00
6395;BME280;3230;42.588;23.358;2023-01-26T01:41:15;91249.91;;;-3.25;100.00
6395;BME280;3230;42.588;23.358;2023-01-26T01:43:41;91252.69;;;-3.19;100.00
6395;BME280;3230;42.588;23.358;2023-01-26T01:46:17;91252.34;;;-3.16;100.00
6395;BME280;3230;42.588;23.358;2023-01-26T01:51:20;91249.47;;;-3.28;100.00
6395;BME280;3230;42.588;23.358;2023-01-26T01:53:50;91245.94;;;-3.27;100.00
6395;BME280;3230;42.588;23.358;2023-01-26T01:56:22;91251.84;;;-3.27;100.00
6395;BME280;3230;42.588;23.358;2023-01-26T01:58:51;91256.75;;;-3.32;100.00
6395;BME280;3230;42.588;23.358;2023-01-26T02:01:18;91247.97;;;-3.44;100.00
6395;BME280;3230;42.588;23.358;2023-01-26T02:03:44;91239.91;;;-3.41;100.00
6395;BME280;3230;42.588;23.358;2023-01-26T02:06:14;91245.63;;;-3.39;100.00
6395;BME280;3230;42.588;23.358;2023-01-26T02:08:48;91234.22;;;-3.37;100.00
6395;BME280;3230;42.588;23.358;2023-01-26T02:11:18;91231.19;;;-3.47;100.00
6395;BME280;3230;42.588;23.358;2023-01-26T02:13:46;91224.41;;;-3.33;100.00
6395;BME280;3230;42.588;23.358;2023-01-26T02:16:13;91221.38;;;-3.43;100.00
6395;BME280;3230;42.588;23.358;2023-01-26T02:18:39;91218.84;;;-3.37;100.00
6395;BME280;3230;42.588;23.358;2023-01-26T02:21:06;91219.34;;;-3.48;100.00
6395;BME280;3230;42.588;23.358;2023-01-26T02:26:23;91201.66;;;-3.43;100.00
6395;BME280;3230;42.588;23.358;2023-01-26T02:28:51;91203.00;;;-3.47;100.00
6395;BME280;3230;42.588;23.358;2023-01-26T02:31:17;91196.19;;;-3.40;100.00
6395;BME280;3230;42.588;23.358;2023-01-26T02:33:43;91195.22;;;-3.32;100.00
6395;BME280;3230;42.588;23.358;2023-01-26T02:36:20;91195.22;;;-3.32;100.00
6395;BME280;3230;42.588;23.358;2023-01-26T02:41:23;91194.81;;;-3.35;100.00
6395;BME280;3230;42.588;23.358;2023-01-26T02:44:08;91199.75;;;-3.34;100.00
6395;BME280;3230;42.588;23.358;2023-01-26T02:46:34;91187.34;;;-3.30;100.00
6395;BME280;3230;42.588;23.358;2023-01-26T02:49:00;91188.94;;;-3.29;100.00
6395;BME280;3230;42.588;23.358;2023-01-26T02:52:01;91184.81;;;-3.52;100.00
6395;BME280;3230;42.588;23.358;2023-01-26T02:54:26;91176.00;;;-3.49;100.00
6395;BME280;3230;42.588;23.358;2023-01-26T02:57:11;91170.59;;;-3.33;100.00
6395;BME280;3230;42.588;23.358;2023-01-26T02:59:37;91168.88;;;-3.54;100.00
6395;BME280;3230;42.588;23.358;2023-01-26T03:02:02;91169.28;;;-3.50;100.00
6395;BME280;3230;42.588;23.358;2023-01-26T03:04:28;91168.06;;;-3.55;100.00
6395;BME280;3230;42.588;23.358;2023-01-26T03:06:53;91157.88;;;-3.48;100.00
6395;BME280;3230;42.588;23.358;2023-01-26T03:09:19;91159.69;;;-3.42;100.00
6395;BME280;3230;42.588;23.358;2023-01-26T03:11:45;91162.47;;;-3.37;100.00
6395;BME280;3230;42.588;23.358;2023-01-26T03:14:11;91156.78;;;-3.32;100.00
6395;BME280;3230;42.588;23.358;2023-01-26T03:16:37;91155.34;;;-3.41;100.00
6395;BME280;3230;42.588;23.358;2023-01-26T03:19:04;91144.25;;;-3.48;100.00
6395;BME280;3230;42.588;23.358;2023-01-26T03:21:48;91141.53;;;-3.47;100.00
6395;BME280;3230;42.588;23.358;2023-01-26T03:24:32;91137.69;;;-3.58;100.00
6395;BME280;3230;42.588;23.358;2023-01-26T03:27:16;91132.38;;;-3.56;100.00
6395;BME280;3230;42.588;23.358;2023-01-26T03:29:51;91122.97;;;-3.49;100.00
6395;BME280;3230;42.588;23.358;2023-01-26T03:32:16;91126.84;;;-3.60;100.00
6395;BME280;3230;42.588;23.358;2023-01-26T03:34:42;91132.16;;;-3.61;100.00
6395;BME280;3230;42.588;23.358;2023-01-26T03:37:07;91128.88;;;-3.77;100.00
6395;BME280;3230;42.588;23.358;2023-01-26T03:39:33;91132.84;;;-3.74;100.00
6395;BME280;3230;42.588;23.358;2023-01-26T03:42:17;91124.41;;;-3.68;100.00
6395;BME280;3230;42.588;23.358;2023-01-26T03:45:01;91132.16;;;-3.61;100.00
6395;BME280;3230;42.588;23.358;2023-01-26T03:47:45;91122.81;;;-3.69;100.00
6395;BME280;3230;42.588;23.358;2023-01-26T03:50:29;91128.66;;;-3.82;100.00
6395;BME280;3230;42.588;23.358;2023-01-26T03:53:18;91124.19;;;-3.73;100.00
6395;BME280;3230;42.588;23.358;2023-01-26T03:56:07;91115.66;;;-3.80;100.00
6395;BME280;3230;42.588;23.358;2023-01-26T03:58:45;91111.88;;;-3.84;100.00
6395;BME280;3230;42.588;23.358;2023-01-26T04:01:13;91106.63;;;-3.76;100.00
6395;BME280;3230;42.588;23.358;2023-01-26T04:03:49;91115.72;;;-3.74;100.00
6395;BME280;3230;42.588;23.358;2023-01-26T04:06:34;91106.91;;;-3.93;100.00
6395;BME280;3230;42.588;23.358;2023-01-26T04:09:20;91107.66;;;-3.71;100.00
6395;BME280;3230;42.588;23.358;2023-01-26T04:11:46;91105.50;;;-3.67;100.00
6395;BME280;3230;42.588;23.358;2023-01-26T04:14:13;91099.00;;;-3.70;100.00
6395;BME280;3230;42.588;23.358;2023-01-26T04:16:58;91104.09;;;-3.76;100.00
6395;BME280;3230;42.588;23.358;2023-01-26T04:19:42;91088.00;;;-3.63;100.00
6395;BME280;3230;42.588;23.358;2023-01-26T04:22:26;91084.25;;;-3.67;100.00
6395;BME280;3230;42.588;23.358;2023-01-26T04:24:52;91074.97;;;-3.97;100.00
6395;BME280;3230;42.588;23.358;2023-01-26T04:27:17;91075.44;;;-3.87;100.00
6395;BME280;3230;42.588;23.358;2023-01-26T04:29:43;91079.06;;;-3.74;100.00
6395;BME280;3230;42.588;23.358;2023-01-26T04:32:08;91073.84;;;-3.88;100.00
6395;BME280;3230;42.588;23.358;2023-01-26T04:34:34;91078.94;;;-3.94;100.00
6395;BME280;3230;42.588;23.358;2023-01-26T04:36:59;91079.25;;;-4.04;100.00
6395;BME280;3230;42.588;23.358;2023-01-26T04:39:25;91073.97;;;-3.96;100.00
6395;BME280;3230;42.588;23.358;2023-01-26T04:41:50;91074.13;;;-4.04;100.00
6395;BME280;3230;42.588;23.358;2023-01-26T04:44:15;91079.72;;;-4.15;100.00
6395;BME280;3230;42.588;23.358;2023-01-26T04:46:41;91073.28;;;-4.11;100.00
6395;BME280;3230;42.588;23.358;2023-01-26T04:49:07;91073.88;;;-4.09;100.00
6395;BME280;3230;42.588;23.358;2023-01-26T04:51:32;91070.81;;;-3.98;100.00
6395;BME280;3230;42.588;23.358;2023-01-26T04:53:58;91077.53;;;-3.97;100.00
6395;BME280;3230;42.588;23.358;2023-01-26T04:56:32;91072.03;;;-3.94;100.00
6395;BME280;3230;42.588;23.358;2023-01-26T04:59:00;91069.84;;;-3.97;100.00
6395;BME280;3230;42.588;23.358;2023-01-26T05:01:26;91072.53;;;-4.05;100.00
6395;BME280;3230;42.588;23.358;2023-01-26T05:03:52;91084.38;;;-4.04;100.00
6395;BME280;3230;42.588;23.358;2023-01-26T05:06:17;91074.16;;;-3.97;100.00
6395;BME280;3230;42.588;23.358;2023-01-26T05:08:43;91083.00;;;-4.00;100.00
6395;BME280;3230;42.588;23.358;2023-01-26T05:11:09;91056.06;;;-3.96;100.00
6395;BME280;3230;42.588;23.358;2023-01-26T05:13:34;91077.47;;;-3.75;100.00
6395;BME280;3230;42.588;23.358;2023-01-26T05:16:01;91066.66;;;-3.77;100.00
6395;BME280;3230;42.588;23.358;2023-01-26T05:18:27;91065.59;;;-3.83;100.00
6395;BME280;3230;42.588;23.358;2023-01-26T05:20:53;91068.59;;;-3.79;100.00
6395;BME280;3230;42.588;23.358;2023-01-26T05:23:19;91062.53;;;-3.72;100.00
6395;BME280;3230;42.588;23.358;2023-01-26T05:25:44;91056.34;;;-3.84;100.00
6395;BME280;3230;42.588;23.358;2023-01-26T05:28:10;91058.91;;;-3.84;100.00
6395;BME280;3230;42.588;23.358;2023-01-26T05:30:35;91055.13;;;-3.88;100.00
6395;BME280;3230;42.588;23.358;2023-01-26T05:33:03;91057.56;;;-3.80;100.00
6395;BME280;3230;42.588;23.358;2023-01-26T05:35:29;91044.84;;;-3.95;100.00
6395;BME280;3230;42.588;23.358;2023-01-26T05:37:54;91067.41;;;-3.77;100.00
6395;BME280;3230;42.588;23.358;2023-01-26T05:40:20;91056.75;;;-3.80;100.00
6395;BME280;3230;42.588;23.358;2023-01-26T05:42:46;91063.69;;;-3.74;100.00
6395;BME280;3230;42.588;23.358;2023-01-26T05:45:11;91070.72;;;-3.55;100.00
6395;BME280;3230;42.588;23.358;2023-01-26T05:47:37;91063.03;;;-3.55;100.00
6395;BME280;3230;42.588;23.358;2023-01-26T05:50:03;91062.19;;;-3.62;100.00
6395;BME280;3230;42.588;23.358;2023-01-26T05:52:29;91069.75;;;-3.54;100.00
6395;BME280;3230;42.588;23.358;2023-01-26T05:54:55;91062.63;;;-3.58;100.00
6395;BME280;3230;42.588;23.358;2023-01-26T05:57:20;91063.41;;;-3.58;100.00
6395;BME280;3230;42.588;23.358;2023-01-26T05:59:46;91061.06;;;-3.59;100.00
6395;BME280;3230;42.588;23.358;2023-01-26T06:02:11;91060.72;;;-3.49;100.00
6395;BME280;3230;42.588;23.358;2023-01-26T06:04:37;91061.84;;;-3.52;100.00
6395;BME280;3230;42.588;23.358;2023-01-26T06:07:03;91064.63;;;-3.54;100.00
6395;BME280;3230;42.588;23.358;2023-01-26T06:09:28;91060.09;;;-3.51;100.00
6395;BME280;3230;42.588;23.358;2023-01-26T06:11:53;91066.13;;;-3.31;100.00
6395;BME280;3230;42.588;23.358;2023-01-26T06:14:19;91056.50;;;-3.29;100.00
6395;BME280;3230;42.588;23.358;2023-01-26T06:16:44;91062.75;;;-3.38;100.00
6395;BME280;3230;42.588;23.358;2023-01-26T06:19:10;91062.75;;;-3.38;100.00
6395;BME280;3230;42.588;23.358;2023-01-26T06:21:36;91058.66;;;-3.26;100.00
6395;BME280;3230;42.588;23.358;2023-01-26T06:24:01;91056.03;;;-3.39;100.00
6395;BME280;3230;42.588;23.358;2023-01-26T06:26:27;91055.28;;;-3.33;100.00
6395;BME280;3230;42.588;23.358;2023-01-26T06:28:53;91055.06;;;-3.38;100.00
6395;BME280;3230;42.588;23.358;2023-01-26T06:31:19;91045.41;;;-3.36;100.00
6395;BME280;3230;42.588;23.358;2023-01-26T06:33:45;91046.97;;;-3.35;100.00
6395;BME280;3230;42.588;23.358;2023-01-26T06:36:13;91057.22;;;-3.35;100.00
6395;BME280;3230;42.588;23.358;2023-01-26T06:38:44;91048.81;;;-3.29;100.00
6395;BME280;3230;42.588;23.358;2023-01-26T06:41:10;91051.13;;;-3.34;100.00
6395;BME280;3230;42.588;23.358;2023-01-26T06:43:36;91048.03;;;-3.23;100.00
6395;BME280;3230;42.588;23.358;2023-01-26T06:46:03;91046.59;;;-3.32;100.00
6395;BME280;3230;42.588;23.358;2023-01-26T06:48:31;91055.13;;;-3.25;100.00
6395;BME280;3230;42.588;23.358;2023-01-26T06:51:04;91040.88;;;-3.34;100.00
6395;BME280;3230;42.588;23.358;2023-01-26T06:53:36;91046.25;;;-3.29;100.00
6395;BME280;3230;42.588;23.358;2023-01-26T06:56:03;91043.84;;;-3.30;100.00
6395;BME280;3230;42.588;23.358;2023-01-26T06:58:28;91039.03;;;-3.12;100.00
6395;BME280;3230;42.588;23.358;2023-01-26T07:00:54;91053.78;;;-3.14;100.00
6395;BME280;3230;42.588;23.358;2023-01-26T07:03:20;91053.44;;;-2.97;100.00
6395;BME280;3230;42.588;23.358;2023-01-26T07:05:46;91042.38;;;-3.11;100.00
6395;BME280;3230;42.588;23.358;2023-01-26T07:08:11;91045.31;;;-3.14;100.00
6395;BME280;3230;42.588;23.358;2023-01-26T07:10:37;91035.63;;;-3.19;100.00
6395;BME280;3230;42.588;23.358;2023-01-26T07:13:04;91036.06;;;-3.15;100.00
6395;BME280;3230;42.588;23.358;2023-01-26T07:15:30;91041.59;;;-3.12;100.00
6395;BME280;3230;42.588;23.358;2023-01-26T07:17:56;91032.91;;;-3.11;100.00
6395;BME280;3230;42.588;23.358;2023-01-26T07:20:22;91023.69;;;-2.98;100.00
6395;BME280;3230;42.588;23.358;2023-01-26T07:22:49;91019.59;;;-2.86;100.00
6395;BME280;3230;42.588;23.358;2023-01-26T07:25:15;91031.03;;;-2.88;100.00
6395;BME280;3230;42.588;23.358;2023-01-26T07:27:41;91032.56;;;-2.87;100.00
6395;BME280;3230;42.588;23.358;2023-01-26T07:30:07;91031.22;;;-2.83;100.00
6395;BME280;3230;42.588;23.358;2023-01-26T07:32:33;91035.75;;;-2.92;100.00
6395;BME280;3230;42.588;23.358;2023-01-26T07:34:58;91034.97;;;-2.86;100.00
6395;BME280;3230;42.588;23.358;2023-01-26T07:37:27;91024.28;;;-2.96;100.00
6395;BME280;3230;42.588;23.358;2023-01-26T07:39:52;91012.06;;;-2.87;100.00
6395;BME280;3230;42.588;23.358;2023-01-26T07:42:18;91010.72;;;-2.83;100.00
6395;BME280;3230;42.588;23.358;2023-01-26T07:44:43;91020.97;;;-2.83;100.00
6395;BME280;3230;42.588;23.358;2023-01-26T07:47:09;91013.50;;;-2.71;100.00
6395;BME280;3230;42.588;23.358;2023-01-26T07:49:34;91017.84;;;-2.72;100.00
6395;BME280;3230;42.588;23.358;2023-01-26T07:51:59;91018.84;;;-2.66;100.00
6395;BME280;3230;42.588;23.358;2023-01-26T07:54:25;91017.63;;;-2.70;100.00
6395;BME280;3230;42.588;23.358;2023-01-26T07:56:52;91022.97;;;-2.72;100.00
6395;BME280;3230;42.588;23.358;2023-01-26T07:59:19;91018.03;;;-2.74;100.00
6395;BME280;3230;42.588;23.358;2023-01-26T08:01:45;91010.13;;;-2.72;100.00
6395;BME280;3230;42.588;23.358;2023-01-26T08:04:11;91003.44;;;-2.73;100.00
6395;BME280;3230;42.588;23.358;2023-01-26T08:06:36;91013.72;;;-2.66;100.00
6395;BME280;3230;42.588;23.358;2023-01-26T08:09:02;91002.25;;;-2.70;100.00
6395;BME280;3230;42.588;23.358;2023-01-26T08:11:28;91013.50;;;-2.71;100.00
6395;BME280;3230;42.588;23.358;2023-01-26T08:13:54;91002.25;;;-2.57;100.00
6395;BME280;3230;42.588;23.358;2023-01-26T08:16:20;90991.63;;;-2.54;100.00
6395;BME280;3230;42.588;23.358;2023-01-26T08:18:46;91003.09;;;-2.43;100.00
6395;BME280;3230;42.588;23.358;2023-01-26T08:21:13;90998.75;;;-2.36;100.00
6395;BME280;3230;42.588;23.358;2023-01-26T08:23:40;91001.94;;;-2.34;100.00
6395;BME280;3230;42.588;23.358;2023-01-26T08:26:07;90995.41;;;-2.30;100.00
6395;BME280;3230;42.588;23.358;2023-01-26T08:28:33;90993.63;;;-2.49;100.00
6395;BME280;3230;42.588;23.358;2023-01-26T08:31:14;91000.34;;;-2.35;100.00
6395;BME280;3230;42.588;23.358;2023-01-26T08:33:42;90981.38;;;-2.27;100.00
6395;BME280;3230;42.588;23.358;2023-01-26T08:36:10;90986.50;;;-2.41;100.00
6395;BME280;3230;42.588;23.358;2023-01-26T08:38:36;90997.94;;;-2.36;100.00
6395;BME280;3230;42.588;23.358;2023-01-26T08:41:02;90989.69;;;-2.25;100.00
6395;BME280;3230;42.588;23.358;2023-01-26T08:43:28;90991.06;;;-2.22;100.00
6395;BME280;3230;42.588;23.358;2023-01-26T08:45:54;90988.88;;;-2.12;100.00
6395;BME280;3230;42.588;23.358;2023-01-26T08:48:19;90993.03;;;-2.25;100.00
6395;BME280;3230;42.588;23.358;2023-01-26T08:50:45;90994.03;;;-2.19;100.00
6395;BME280;3230;42.588;23.358;2023-01-26T08:53:11;90996.78;;;-2.07;100.00
6395;BME280;3230;42.588;23.358;2023-01-26T08:55:37;90990.63;;;-1.93;100.00
6395;BME280;3230;42.588;23.358;2023-01-26T08:58:03;90989.28;;;-2.09;100.00
6395;BME280;3230;42.588;23.358;2023-01-26T09:00:29;90994.22;;;-2.27;100.00
6395;BME280;3230;42.588;23.358;2023-01-26T09:02:59;90987.69;;;-2.16;100.00
6395;BME280;3230;42.588;23.358;2023-01-26T09:05:25;90992.66;;;-2.08;100.00
6395;BME280;3230;42.588;23.358;2023-01-26T09:07:50;90988.88;;;-2.19;100.00
6395;BME280;3230;42.588;23.358;2023-01-26T09:10:16;90996.78;;;-2.00;100.00
6395;BME280;3230;42.588;23.358;2023-01-26T09:12:41;90985.91;;;-2.02;100.00
6395;BME280;3230;42.588;23.358;2023-01-26T09:15:07;90984.91;;;-2.01;100.00
6395;BME280;3230;42.588;23.358;2023-01-26T09:17:33;90981.78;;;-2.03;100.00
6395;BME280;3230;42.588;23.358;2023-01-26T09:19:58;90970.72;;;-2.04;100.00
6395;BME280;3230;42.588;23.358;2023-01-26T09:22:24;90969.53;;;-1.95;100.00
6395;BME280;3230;42.588;23.358;2023-01-26T09:24:49;90971.09;;;-1.94;100.00
6395;BME280;3230;42.588;23.358;2023-01-26T09:27:15;90957.84;;;-1.90;100.00
6395;BME280;3230;42.588;23.358;2023-01-26T09:29:40;90956.25;;;-1.78;100.00
6395;BME280;3230;42.588;23.358;2023-01-26T09:32:06;90957.59;;;-1.62;100.00
6395;BME280;3230;42.588;23.358;2023-01-26T09:34:31;90953.06;;;-1.73;100.00
6395;BME280;3230;42.588;23.358;2023-01-26T09:36:56;90952.88;;;-1.72;100.00
6395;BME280;3230;42.588;23.358;2023-01-26T09:39:22;90957.66;;;-1.82;100.00
6395;BME280;3230;42.588;23.358;2023-01-26T09:42:01;90960.81;;;-1.87;100.00
6395;BME280;3230;42.588;23.358;2023-01-26T09:44:32;90961.00;;;-1.75;100.00
6395;BME280;3230;42.588;23.358;2023-01-26T09:47:07;90958.00;;;-1.65;100.00
6395;BME280;3230;42.588;23.358;2023-01-26T09:50:19;90946.16;;;-1.66;100.00
6395;BME280;3230;42.588;23.358;2023-01-26T09:52:59;90936.84;;;-1.67;100.00
6395;BME280;3230;42.588;23.358;2023-01-26T09:55:27;90921.06;;;-1.71;100.00
6395;BME280;3230;42.588;23.358;2023-01-26T10:00:30;90929.53;;;-1.64;100.00
6395;BME280;3230;42.588;23.358;2023-01-26T10:08:16;90931.66;;;-1.47;100.00
6395;BME280;3230;42.588;23.358;2023-01-26T10:10:53;90945.63;;;-1.23;100.00
6395;BME280;3230;42.588;23.358;2023-01-26T10:13:20;90934.19;;;-1.40;100.00
6395;BME280;3230;42.588;23.358;2023-01-26T10:15:50;90931.41;;;-1.39;100.00
6395;BME280;3230;42.588;23.358;2023-01-26T10:18:29;90905.91;;;-1.34;100.00
6395;BME280;3230;42.588;23.358;2023-01-26T10:20:58;90903.19;;;-1.52;100.00
6395;BME280;3230;42.588;23.358;2023-01-26T10:23:30;90901.22;;;-1.50;100.00
6395;BME280;3230;42.588;23.358;2023-01-26T10:26:12;90887.72;;;-1.39;100.00
6395;BME280;3230;42.588;23.358;2023-01-26T10:28:39;90892.13;;;-1.46;100.00
6395;BME280;3230;42.588;23.358;2023-01-26T10:31:13;90892.31;;;-1.48;100.00
6395;BME280;3230;42.588;23.358;2023-01-26T10:33:46;90877.31;;;-1.57;100.00
6395;BME280;3230;42.588;23.358;2023-01-26T10:36:13;90867.03;;;-1.51;100.00
6395;BME280;3230;42.588;23.358;2023-01-26T10:38:40;90870.75;;;-1.47;100.00
6395;BME280;3230;42.588;23.358;2023-01-26T10:41:21;90858.06;;;-1.35;100.00
6395;BME280;3230;42.588;23.358;2023-01-26T10:44:32;90851.25;;;-1.16;100.00
6395;BME280;3230;42.588;23.358;2023-01-26T10:47:14;90849.06;;;-1.19;100.00
6395;BME280;3230;42.588;23.358;2023-01-26T10:49:40;90855.19;;;-1.13;100.00
6395;BME280;3230;42.588;23.358;2023-01-26T10:54:39;90834.41;;;-1.18;100.00
6395;BME280;3230;42.588;23.358;2023-01-26T10:57:25;90827.34;;;-1.23;100.00
6395;BME280;3230;42.588;23.358;2023-01-26T10:59:53;90817.06;;;-1.23;100.00
6395;BME280;3230;42.588;23.358;2023-01-26T11:02:25;90809.53;;;-1.24;100.00
6395;BME280;3230;42.588;23.358;2023-01-26T11:07:43;90811.13;;;-1.23;100.00
6395;BME280;3230;42.588;23.358;2023-01-26T11:12:44;90805.81;;;-1.29;100.00
6395;BME280;3230;42.588;23.358;2023-01-26T11:15:23;90803.78;;;-1.20;100.00
6395;BME280;3230;42.588;23.358;2023-01-26T11:18:10;90792.97;;;-1.29;100.00
6395;BME280;3230;42.588;23.358;2023-01-26T11:20:46;90803.00;;;-1.20;100.00
6395;BME280;3230;42.588;23.358;2023-01-26T11:37:02;90763.94;;;-1.36;100.00
6395;BME280;3230;42.588;23.358;2023-01-26T11:39:53;90761.28;;;-1.22;100.00
6395;BME280;3230;42.588;23.358;2023-01-26T11:42:34;90754.66;;;-1.37;100.00
6395;BME280;3230;42.588;23.358;2023-01-26T11:45:21;90759.16;;;-1.32;100.00
6395;BME280;3230;42.588;23.358;2023-01-26T11:47:57;90757.72;;;-1.21;100.00
6395;BME280;3230;42.588;23.358;2023-01-26T11:58:46;90754.31;;;-1.15;100.00
6395;BME280;3230;42.588;23.358;2023-01-26T12:01:19;90742.75;;;-1.31;100.00
6395;BME280;3230;42.588;23.358;2023-01-26T12:03:48;90744.25;;;-1.17;100.00
6395;BME280;3230;42.588;23.358;2023-01-26T12:06:36;90745.59;;;-1.14;100.00
6395;BME280;3230;42.588;23.358;2023-01-26T12:09:21;90748.91;;;-1.07;100.00
6395;BME280;3230;42.588;23.358;2023-01-26T12:20:17;90724.59;;;-1.11;100.00
6395;BME280;3230;42.588;23.358;2023-01-26T12:22:51;90713.38;;;-1.17;100.00
6395;BME280;3230;42.588;23.358;2023-01-26T12:27:48;90710.59;;;-1.15;100.00
6395;BME280;3230;42.588;23.358;2023-01-26T12:32:47;90705.66;;;-1.17;100.00
6395;BME280;3230;42.588;23.358;2023-01-26T12:35:13;90695.31;;;-1.35;100.00
6395;BME280;3230;42.588;23.358;2023-01-26T12:43:51;90685.72;;;-1.47;100.00
6395;BME280;3230;42.588;23.358;2023-01-26T12:46:22;90689.50;;;-1.49;100.00
6395;BME280;3230;42.588;23.358;2023-01-26T12:48:55;90689.28;;;-1.22;100.00
6395;BME280;3230;42.588;23.358;2023-01-26T12:51:42;90692.00;;;-1.17;100.00
6395;BME280;3230;42.588;23.358;2023-01-26T12:54:19;90688.19;;;-1.33;100.00
6395;BME280;3230;42.588;23.358;2023-01-26T12:56:53;90686.56;;;-1.27;100.00
6395;BME280;3230;42.588;23.358;2023-01-26T12:59:35;90684.53;;;-1.19;100.00
6395;BME280;3230;42.588;23.358;2023-01-26T13:02:30;90676.75;;;-1.12;100.00
6395;BME280;3230;42.588;23.358;2023-01-26T13:05:00;90678.31;;;-1.11;100.00
6395;BME280;3230;42.588;23.358;2023-01-26T13:07:37;90680.06;;;-1.30;100.00
6395;BME280;3230;42.588;23.358;2023-01-26T13:15:16;90681.47;;;-1.09;100.00
6395;BME280;3230;42.588;23.358;2023-01-26T13:17:53;90672.44;;;-1.18;100.00
6395;BME280;3230;42.588;23.358;2023-01-26T13:22:51;90667.72;;;-1.21;100.00
6395;BME280;3230;42.588;23.358;2023-01-26T13:25:24;90665.94;;;-1.21;100.00
6395;BME280;3230;42.588;23.358;2023-01-26T13:27:56;90672.25;;;-1.17;100.00
6395;BME280;3230;42.588;23.358;2023-01-26T13:32:55;90663.72;;;-1.17;100.00
6395;BME280;3230;42.588;23.358;2023-01-26T13:35:25;90663.94;;;-1.19;100.00
6395;BME280;3230;42.588;23.358;2023-01-26T13:40:32;90651.16;;;-1.25;100.00
6395;BME280;3230;42.588;23.358;2023-01-26T13:48:17;90646.81;;;-1.50;100.00
6395;BME280;3230;42.588;23.358;2023-01-26T13:50:49;90643.84;;;-1.47;100.00
6395;BME280;3230;42.588;23.358;2023-01-26T13:53:43;90643.53;;;-1.39;100.00
6395;BME280;3230;42.588;23.358;2023-01-26T13:56:37;90645.00;;;-1.24;100.00
6395;BME280;3230;42.588;23.358;2023-01-26T13:59:16;90637.22;;;-1.36;100.00
6395;BME280;3230;42.588;23.358;2023-01-26T14:01:45;90626.13;;;-1.37;100.00
6395;BME280;3230;42.588;23.358;2023-01-26T14:04:17;90627.09;;;-1.31;100.00
6395;BME280;3230;42.588;23.358;2023-01-26T14:06:57;90627.22;;;-1.26;100.00
6395;BME280;3230;42.588;23.358;2023-01-26T14:09:27;90621.81;;;-1.18;100.00
6395;BME280;3230;42.588;23.358;2023-01-26T14:11:57;90618.88;;;-1.21;100.00
6395;BME280;3230;42.588;23.358;2023-01-26T14:14:26;90615.69;;;-1.17;100.00
6395;BME280;3230;42.588;23.358;2023-01-26T14:16:52;90610.38;;;-1.22;100.00
6395;BME280;3230;42.588;23.358;2023-01-26T14:19:20;90623.22;;;-1.22;100.00
6395;BME280;3230;42.588;23.358;2023-01-26T14:21:51;90619.50;;;-1.26;100.00
6395;BME280;3230;42.588;23.358;2023-01-26T14:24:39;90614.31;;;-1.19;100.00
6395;BME280;3230;42.588;23.358;2023-01-26T14:27:36;90610.03;;;-1.07;100.00
6395;BME280;3230;42.588;23.358;2023-01-26T14:32:46;90592.94;;;-1.20;100.00
6395;BME280;3230;42.588;23.358;2023-01-26T14:35:21;90586.31;;;-1.09;100.00
6395;BME280;3230;42.588;23.358;2023-01-26T14:37:48;90593.91;;;-1.14;100.00
6395;BME280;3230;42.588;23.358;2023-01-26T14:40:22;90592.53;;;-0.98;100.00